sensor_id;sensor_type;location;lat;lon;timestamp;P1;durP1;ratioP1;P2;durP2;ratioP2
29030;SDS011;16122;50.236;11.734;2022-12-29T00:01:55;3.00;;;1.83;;
29030;SDS011;16122;50.236;11.734;2022-12-29T00:04:21;1.47;;;1.37;;
29030;SDS011;16122;50.236;11.734;2022-12-29T00:06:47;0.70;;;0.70;;
29030;SDS011;16122;50.236;11.734;2022-12-29T00:09:14;1.70;;;1.30;;
29030;SDS011;16122;50.236;11.734;2022-12-29T00:11:41;1.50;;;1.40;;
29030;SDS011;16122;50.236;11.734;2022-12-29T00:14:10;1.20;;;1.10;;
29030;SDS011;16122;50.236;11.734;2022-12-29T00:16:56;1.40;;;1.13;;
29030;SDS011;16122;50.236;11.734;2022-12-29T00:19:22;2.87;;;1.00;;
29030;SDS011;16122;50.236;11.734;2022-12-29T00:22:10;0.90;;;0.80;;
29030;SDS011;16122;50.236;11.734;2022-12-29T00:24:56;2.60;;;1.33;;
29030;SDS011;16122;50.236;11.734;2022-12-29T00:27:34;1.20;;;1.10;;
29030;SDS011;16122;50.236;11.734;2022-12-29T00:30:22;1.37;;;1.10;;
29030;SDS011;16122;50.236;11.734;2022-12-29T00:33:10;2.40;;;1.20;;
29030;SDS011;16122;50.236;11.734;2022-12-29T00:36:41;1.40;;;1.20;;
29030;SDS011;16122;50.236;11.734;2022-12-29T00:38:49;1.90;;;1.33;;
29030;SDS011;16122;50.236;11.734;2022-12-29T00:41:36;1.50;;;1.00;;
29030;SDS011;16122;50.236;11.734;2022-12-29T00:44:20;1.10;;;1.00;;
29030;SDS011;16122;50.236;11.734;2022-12-29T00:46:46;1.00;;;0.90;;
29030;SDS011;16122;50.236;11.734;2022-12-29T00:49:13;1.10;;;1.00;;
29030;SDS011;16122;50.236;11.734;2022-12-29T00:51:59;1.63;;;1.13;;
29030;SDS011;16122;50.236;11.734;2022-12-29T00:54:28;1.17;;;1.07;;
29030;SDS011;16122;50.236;11.734;2022-12-29T00:56:56;1.30;;;1.13;;
29030;SDS011;16122;50.236;11.734;2022-12-29T00:59:22;1.47;;;1.37;;
29030;SDS011;16122;50.236;11.734;2022-12-29T01:01:49;1.10;;;1.00;;
29030;SDS011;16122;50.236;11.734;2022-12-29T01:04:16;2.17;;;1.30;;
29030;SDS011;16122;50.236;11.734;2022-12-29T01:06:43;1.00;;;0.90;;
29030;SDS011;16122;50.236;11.734;2022-12-29T01:09:09;1.40;;;1.30;;
29030;SDS011;16122;50.236;11.734;2022-12-29T01:11:54;1.00;;;0.90;;
29030;SDS011;16122;50.236;11.734;2022-12-29T01:14:20;2.20;;;1.00;;
29030;SDS011;16122;50.236;11.734;2022-12-29T01:16:46;1.47;;;1.03;;
29030;SDS011;16122;50.236;11.734;2022-12-29T01:19:13;1.27;;;1.17;;
29030;SDS011;16122;50.236;11.734;2022-12-29T01:21:39;1.43;;;0.93;;
29030;SDS011;16122;50.236;11.734;2022-12-29T01:24:05;1.17;;;1.07;;
29030;SDS011;16122;50.236;11.734;2022-12-29T01:26:31;1.00;;;0.80;;
29030;SDS011;16122;50.236;11.734;2022-12-29T01:28:57;1.17;;;1.07;;
29030;SDS011;16122;50.236;11.734;2022-12-29T01:31:23;1.23;;;0.97;;
29030;SDS011;16122;50.236;11.734;2022-12-29T01:33:49;1.00;;;1.00;;
29030;SDS011;16122;50.236;11.734;2022-12-29T01:36:15;1.10;;;1.00;;
29030;SDS011;16122;50.236;11.734;2022-12-29T01:38:42;1.10;;;0.97;;
29030;SDS011;16122;50.236;11.734;2022-12-29T01:41:09;1.13;;;1.03;;
29030;SDS011;16122;50.236;11.734;2022-12-29T01:46:14;1.30;;;1.10;;
29030;SDS011;16122;50.236;11.734;2022-12-29T01:48:46;1.27;;;1.17;;
29030;SDS011;16122;50.236;11.734;2022-12-29T01:51:13;0.80;;;0.80;;
29030;SDS011;16122;50.236;11.734;2022-12-29T01:53:40;1.00;;;0.90;;
29030;SDS011;16122;50.236;11.734;2022-12-29T01:56:08;1.10;;;0.90;;
29030;SDS011;16122;50.236;11.734;2022-12-29T01:58:38;1.70;;;1.33;;
29030;SDS011;16122;50.236;11.734;2022-12-29T02:01:10;1.00;;;0.90;;
29030;SDS011;16122;50.236;11.734;2022-12-29T02:03:36;1.03;;;0.93;;
29030;SDS011;16122;50.236;11.734;2022-12-29T02:06:04;1.10;;;1.00;;
29030;SDS011;16122;50.236;11.734;2022-12-29T02:08:38;1.27;;;0.70;;
29030;SDS011;16122;50.236;11.734;2022-12-29T02:11:05;1.50;;;1.20;;
29030;SDS011;16122;50.236;11.734;2022-12-29T02:13:33;1.77;;;1.00;;
29030;SDS011;16122;50.236;11.734;2022-12-29T02:32:08;1.00;;;0.90;;
29030;SDS011;16122;50.236;11.734;2022-12-29T02:46:01;1.13;;;0.93;;
29030;SDS011;16122;50.236;11.734;2022-12-29T02:48:43;1.20;;;1.10;;
29030;SDS011;16122;50.236;11.734;2022-12-29T02:51:18;0.73;;;0.73;;
29030;SDS011;16122;50.236;11.734;2022-12-29T02:53:56;1.10;;;1.00;;
29030;SDS011;16122;50.236;11.734;2022-12-29T02:56:42;0.90;;;0.90;;
29030;SDS011;16122;50.236;11.734;2022-12-29T02:59:07;1.47;;;1.07;;
29030;SDS011;16122;50.236;11.734;2022-12-29T03:05:43;0.83;;;0.83;;
29030;SDS011;16122;50.236;11.734;2022-12-29T03:07:50;1.03;;;0.87;;
29030;SDS011;16122;50.236;11.734;2022-12-29T03:13:16;0.90;;;0.90;;
29030;SDS011;16122;50.236;11.734;2022-12-29T03:16:27;0.70;;;0.70;;
29030;SDS011;16122;50.236;11.734;2022-12-29T03:24:55;1.50;;;1.00;;
29030;SDS011;16122;50.236;11.734;2022-12-29T03:27:45;1.20;;;0.93;;
29030;SDS011;16122;50.236;11.734;2022-12-29T03:30:16;0.87;;;0.83;;
29030;SDS011;16122;50.236;11.734;2022-12-29T03:32:44;0.80;;;0.80;;
29030;SDS011;16122;50.236;11.734;2022-12-29T03:35:19;0.97;;;0.80;;
29030;SDS011;16122;50.236;11.734;2022-12-29T03:38:02;0.80;;;0.80;;
29030;SDS011;16122;50.236;11.734;2022-12-29T03:40:47;1.00;;;0.90;;
29030;SDS011;16122;50.236;11.734;2022-12-29T03:43:16;1.03;;;0.93;;
29030;SDS011;16122;50.236;11.734;2022-12-29T03:45:43;0.80;;;0.80;;
29030;SDS011;16122;50.236;11.734;2022-12-29T03:48:09;1.00;;;1.00;;
29030;SDS011;16122;50.236;11.734;2022-12-29T03:50:37;0.80;;;0.80;;
29030;SDS011;16122;50.236;11.734;2022-12-29T03:53:03;1.10;;;0.87;;
29030;SDS011;16122;50.236;11.734;2022-12-29T03:55:29;1.20;;;1.03;;
29030;SDS011;16122;50.236;11.734;2022-12-29T03:57:56;1.33;;;0.90;;
29030;SDS011;16122;50.236;11.734;2022-12-29T04:00:33;1.27;;;0.90;;
29030;SDS011;16122;50.236;11.734;2022-12-29T04:02:59;0.90;;;0.90;;
29030;SDS011;16122;50.236;11.734;2022-12-29T04:05:25;1.00;;;1.00;;
29030;SDS011;16122;50.236;11.734;2022-12-29T04:07:53;1.00;;;0.90;;
29030;SDS011;16122;50.236;11.734;2022-12-29T04:10:19;1.30;;;1.20;;
29030;SDS011;16122;50.236;11.734;2022-12-29T04:12:47;1.37;;;0.90;;
29030;SDS011;16122;50.236;11.734;2022-12-29T04:15:13;1.23;;;0.90;;
29030;SDS011;16122;50.236;11.734;2022-12-29T04:17:39;1.37;;;1.00;;
29030;SDS011;16122;50.236;11.734;2022-12-29T04:20:05;1.10;;;0.80;;
29030;SDS011;16122;50.236;11.734;2022-12-29T04:23:01;1.30;;;0.90;;
29030;SDS011;16122;50.236;11.734;2022-12-29T04:25:28;1.07;;;1.00;;
29030;SDS011;16122;50.236;11.734;2022-12-29T04:27:56;2.13;;;1.10;;
29030;SDS011;16122;50.236;11.734;2022-12-29T04:30:49;1.27;;;0.90;;
29030;SDS011;16122;50.236;11.734;2022-12-29T04:33:32;1.03;;;0.90;;
29030;SDS011;16122;50.236;11.734;2022-12-29T04:35:58;1.27;;;1.17;;
29030;SDS011;16122;50.236;11.734;2022-12-29T04:38:24;2.10;;;0.97;;
29030;SDS011;16122;50.236;11.734;2022-12-29T04:40:51;1.30;;;1.00;;
29030;SDS011;16122;50.236;11.734;2022-12-29T04:43:19;1.37;;;1.00;;
29030;SDS011;16122;50.236;11.734;2022-12-29T04:46:07;1.20;;;0.87;;
29030;SDS011;16122;50.236;11.734;2022-12-29T04:49:02;1.10;;;1.00;;
29030;SDS011;16122;50.236;11.734;2022-12-29T04:51:53;1.30;;;1.00;;
29030;SDS011;16122;50.236;11.734;2022-12-29T04:54:19;0.80;;;0.80;;
29030;SDS011;16122;50.236;11.734;2022-12-29T04:56:53;1.50;;;0.90;;
29030;SDS011;16122;50.236;11.734;2022-12-29T04:59:19;0.87;;;0.87;;
29030;SDS011;16122;50.236;11.734;2022-12-29T05:01:47;1.27;;;1.00;;
29030;SDS011;16122;50.236;11.734;2022-12-29T05:04:13;1.20;;;1.10;;
29030;SDS011;16122;50.236;11.734;2022-12-29T05:06:41;1.10;;;1.00;;
29030;SDS011;16122;50.236;11.734;2022-12-29T05:09:08;2.17;;;0.80;;
29030;SDS011;16122;50.236;11.734;2022-12-29T05:11:34;1.53;;;0.97;;
29030;SDS011;16122;50.236;11.734;2022-12-29T05:14:00;1.30;;;1.10;;
29030;SDS011;16122;50.236;11.734;2022-12-29T05:16:26;1.53;;;0.90;;
29030;SDS011;16122;50.236;11.734;2022-12-29T05:18:52;1.20;;;1.10;;
29030;SDS011;16122;50.236;11.734;2022-12-29T05:21:18;1.17;;;1.07;;
29030;SDS011;16122;50.236;11.734;2022-12-29T05:23:44;1.50;;;1.10;;
29030;SDS011;16122;50.236;11.734;2022-12-29T05:26:10;2.80;;;1.33;;
29030;SDS011;16122;50.236;11.734;2022-12-29T05:29:05;1.20;;;1.07;;
29030;SDS011;16122;50.236;11.734;2022-12-29T05:31:31;1.47;;;1.20;;
29030;SDS011;16122;50.236;11.734;2022-12-29T05:33:57;1.10;;;0.90;;
29030;SDS011;16122;50.236;11.734;2022-12-29T05:36:24;1.23;;;0.97;;
29030;SDS011;16122;50.236;11.734;2022-12-29T05:38:53;3.00;;;0.90;;
29030;SDS011;16122;50.236;11.734;2022-12-29T05:41:19;1.10;;;1.00;;
29030;SDS011;16122;50.236;11.734;2022-12-29T05:44:11;2.53;;;1.10;;
29030;SDS011;16122;50.236;11.734;2022-12-29T05:46:47;4.43;;;1.20;;
29030;SDS011;16122;50.236;11.734;2022-12-29T05:49:36;1.33;;;1.10;;
29030;SDS011;16122;50.236;11.734;2022-12-29T05:52:40;1.40;;;1.17;;
29030;SDS011;16122;50.236;11.734;2022-12-29T05:55:06;1.87;;;1.10;;
29030;SDS011;16122;50.236;11.734;2022-12-29T05:57:34;2.20;;;1.00;;
29030;SDS011;16122;50.236;11.734;2022-12-29T06:00:07;1.30;;;0.97;;
29030;SDS011;16122;50.236;11.734;2022-12-29T06:02:39;1.40;;;1.23;;
29030;SDS011;16122;50.236;11.734;2022-12-29T06:05:06;1.17;;;1.07;;
29030;SDS011;16122;50.236;11.734;2022-12-29T06:07:34;1.37;;;1.00;;
29030;SDS011;16122;50.236;11.734;2022-12-29T06:10:01;1.20;;;1.10;;
29030;SDS011;16122;50.236;11.734;2022-12-29T06:12:31;1.27;;;1.17;;
29030;SDS011;16122;50.236;11.734;2022-12-29T06:14:56;2.40;;;1.10;;
29030;SDS011;16122;50.236;11.734;2022-12-29T06:17:22;1.87;;;1.20;;
29030;SDS011;16122;50.236;11.734;2022-12-29T06:19:49;1.37;;;1.00;;
29030;SDS011;16122;50.236;11.734;2022-12-29T06:22:17;1.10;;;0.97;;
29030;SDS011;16122;50.236;11.734;2022-12-29T06:24:43;2.17;;;1.40;;
29030;SDS011;16122;50.236;11.734;2022-12-29T06:27:09;1.70;;;1.30;;
29030;SDS011;16122;50.236;11.734;2022-12-29T06:29:35;2.23;;;1.23;;
29030;SDS011;16122;50.236;11.734;2022-12-29T06:32:02;4.43;;;1.27;;
29030;SDS011;16122;50.236;11.734;2022-12-29T06:34:31;2.20;;;0.90;;
29030;SDS011;16122;50.236;11.734;2022-12-29T06:36:56;3.63;;;1.10;;
29030;SDS011;16122;50.236;11.734;2022-12-29T06:39:22;1.00;;;0.90;;
29030;SDS011;16122;50.236;11.734;2022-12-29T06:42:00;1.93;;;1.17;;
29030;SDS011;16122;50.236;11.734;2022-12-29T06:44:49;2.30;;;0.90;;
29030;SDS011;16122;50.236;11.734;2022-12-29T06:47:15;1.20;;;0.97;;
29030;SDS011;16122;50.236;11.734;2022-12-29T06:49:40;0.87;;;0.87;;
29030;SDS011;16122;50.236;11.734;2022-12-29T06:52:06;1.80;;;1.00;;
29030;SDS011;16122;50.236;11.734;2022-12-29T06:54:32;1.37;;;1.27;;
29030;SDS011;16122;50.236;11.734;2022-12-29T06:56:58;1.17;;;1.07;;
29030;SDS011;16122;50.236;11.734;2022-12-29T06:59:24;1.30;;;1.13;;
29030;SDS011;16122;50.236;11.734;2022-12-29T07:01:51;1.33;;;1.20;;
29030;SDS011;16122;50.236;11.734;2022-12-29T07:04:16;1.67;;;1.57;;
29030;SDS011;16122;50.236;11.734;2022-12-29T07:06:42;1.60;;;1.20;;
29030;SDS011;16122;50.236;11.734;2022-12-29T07:09:08;1.77;;;1.37;;
29030;SDS011;16122;50.236;11.734;2022-12-29T07:11:34;2.50;;;1.37;;
29030;SDS011;16122;50.236;11.734;2022-12-29T07:14:00;0.90;;;0.83;;
29030;SDS011;16122;50.236;11.734;2022-12-29T07:16:27;1.30;;;1.20;;
29030;SDS011;16122;50.236;11.734;2022-12-29T07:18:54;2.00;;;1.20;;
29030;SDS011;16122;50.236;11.734;2022-12-29T07:21:21;4.00;;;0.90;;
29030;SDS011;16122;50.236;11.734;2022-12-29T07:23:47;1.57;;;1.10;;
29030;SDS011;16122;50.236;11.734;2022-12-29T07:26:13;3.60;;;1.00;;
29030;SDS011;16122;50.236;11.734;2022-12-29T07:28:40;1.33;;;1.00;;
29030;SDS011;16122;50.236;11.734;2022-12-29T07:31:11;1.50;;;1.10;;
29030;SDS011;16122;50.236;11.734;2022-12-29T07:33:42;1.07;;;0.97;;
29030;SDS011;16122;50.236;11.734;2022-12-29T07:36:09;3.43;;;1.10;;
29030;SDS011;16122;50.236;11.734;2022-12-29T07:38:36;1.23;;;1.13;;
29030;SDS011;16122;50.236;11.734;2022-12-29T07:41:02;1.70;;;1.40;;
29030;SDS011;16122;50.236;11.734;2022-12-29T07:43:28;0.80;;;0.80;;
29030;SDS011;16122;50.236;11.734;2022-12-29T07:46:17;5.23;;;1.17;;
29030;SDS011;16122;50.236;11.734;2022-12-29T07:48:42;1.27;;;1.10;;
29030;SDS011;16122;50.236;11.734;2022-12-29T07:51:08;1.77;;;1.00;;
29030;SDS011;16122;50.236;11.734;2022-12-29T07:53:34;1.77;;;1.17;;
29030;SDS011;16122;50.236;11.734;2022-12-29T07:56:00;1.30;;;1.10;;
29030;SDS011;16122;50.236;11.734;2022-12-29T07:58:26;1.70;;;1.03;;
29030;SDS011;16122;50.236;11.734;2022-12-29T08:00:53;1.07;;;0.97;;
29030;SDS011;16122;50.236;11.734;2022-12-29T08:03:19;1.20;;;1.00;;
29030;SDS011;16122;50.236;11.734;2022-12-29T08:05:45;2.80;;;1.10;;
29030;SDS011;16122;50.236;11.734;2022-12-29T08:08:11;1.30;;;1.00;;
29030;SDS011;16122;50.236;11.734;2022-12-29T08:10:36;1.77;;;1.10;;
29030;SDS011;16122;50.236;11.734;2022-12-29T08:13:02;1.03;;;0.93;;
29030;SDS011;16122;50.236;11.734;2022-12-29T08:15:28;1.90;;;1.20;;
29030;SDS011;16122;50.236;11.734;2022-12-29T08:17:54;1.37;;;1.17;;
29030;SDS011;16122;50.236;11.734;2022-12-29T08:20:20;1.90;;;1.20;;
29030;SDS011;16122;50.236;11.734;2022-12-29T08:22:45;1.53;;;0.87;;
29030;SDS011;16122;50.236;11.734;2022-12-29T08:25:11;2.37;;;1.13;;
29030;SDS011;16122;50.236;11.734;2022-12-29T08:27:37;1.13;;;1.07;;
29030;SDS011;16122;50.236;11.734;2022-12-29T08:30:03;2.00;;;0.90;;
29030;SDS011;16122;50.236;11.734;2022-12-29T08:32:29;2.37;;;1.17;;
29030;SDS011;16122;50.236;11.734;2022-12-29T08:34:55;1.30;;;1.10;;
29030;SDS011;16122;50.236;11.734;2022-12-29T08:37:21;1.10;;;0.90;;
29030;SDS011;16122;50.236;11.734;2022-12-29T08:39:47;1.03;;;0.90;;
29030;SDS011;16122;50.236;11.734;2022-12-29T08:42:13;1.83;;;1.00;;
29030;SDS011;16122;50.236;11.734;2022-12-29T08:44:39;2.10;;;0.93;;
29030;SDS011;16122;50.236;11.734;2022-12-29T08:47:04;1.10;;;1.00;;
29030;SDS011;16122;50.236;11.734;2022-12-29T08:49:30;2.40;;;0.90;;
29030;SDS011;16122;50.236;11.734;2022-12-29T08:51:58;1.00;;;1.00;;
29030;SDS011;16122;50.236;11.734;2022-12-29T08:54:24;2.00;;;1.00;;
29030;SDS011;16122;50.236;11.734;2022-12-29T08:56:50;1.63;;;1.00;;
29030;SDS011;16122;50.236;11.734;2022-12-29T08:59:17;1.30;;;1.00;;
29030;SDS011;16122;50.236;11.734;2022-12-29T09:01:45;1.23;;;1.13;;
29030;SDS011;16122;50.236;11.734;2022-12-29T09:04:11;1.37;;;1.00;;
29030;SDS011;16122;50.236;11.734;2022-12-29T09:06:37;1.10;;;0.80;;
29030;SDS011;16122;50.236;11.734;2022-12-29T09:09:03;1.87;;;1.13;;
29030;SDS011;16122;50.236;11.734;2022-12-29T09:11:29;1.20;;;1.10;;
29030;SDS011;16122;50.236;11.734;2022-12-29T09:13:55;1.50;;;1.40;;
29030;SDS011;16122;50.236;11.734;2022-12-29T09:16:21;2.13;;;1.00;;
29030;SDS011;16122;50.236;11.734;2022-12-29T09:18:48;0.90;;;0.90;;
29030;SDS011;16122;50.236;11.734;2022-12-29T09:21:14;2.57;;;1.00;;
29030;SDS011;16122;50.236;11.734;2022-12-29T09:23:40;1.47;;;1.07;;
29030;SDS011;16122;50.236;11.734;2022-12-29T09:26:06;1.53;;;1.00;;
29030;SDS011;16122;50.236;11.734;2022-12-29T09:28:33;1.93;;;1.20;;
29030;SDS011;16122;50.236;11.734;2022-12-29T09:30:59;1.60;;;1.03;;
29030;SDS011;16122;50.236;11.734;2022-12-29T09:33:25;1.20;;;1.10;;
29030;SDS011;16122;50.236;11.734;2022-12-29T09:35:52;1.43;;;1.07;;
29030;SDS011;16122;50.236;11.734;2022-12-29T09:38:19;2.20;;;1.30;;
29030;SDS011;16122;50.236;11.734;2022-12-29T09:40:47;2.17;;;1.20;;
29030;SDS011;16122;50.236;11.734;2022-12-29T09:43:30;1.20;;;0.97;;
29030;SDS011;16122;50.236;11.734;2022-12-29T09:46:15;5.30;;;1.20;;
29030;SDS011;16122;50.236;11.734;2022-12-29T09:51:23;1.73;;;1.20;;
29030;SDS011;16122;50.236;11.734;2022-12-29T09:53:56;1.03;;;0.83;;
29030;SDS011;16122;50.236;11.734;2022-12-29T09:56:25;1.20;;;1.10;;
29030;SDS011;16122;50.236;11.734;2022-12-29T09:59:12;2.13;;;0.90;;
29030;SDS011;16122;50.236;11.734;2022-12-29T10:04:43;1.10;;;0.90;;
29030;SDS011;16122;50.236;11.734;2022-12-29T10:07:12;1.23;;;1.13;;
29030;SDS011;16122;50.236;11.734;2022-12-29T10:12:45;2.10;;;1.07;;
29030;SDS011;16122;50.236;11.734;2022-12-29T10:15:46;1.07;;;0.97;;
29030;SDS011;16122;50.236;11.734;2022-12-29T10:21:25;1.07;;;0.90;;
29030;SDS011;16122;50.236;11.734;2022-12-29T10:24:03;1.30;;;0.90;;
29030;SDS011;16122;50.236;11.734;2022-12-29T10:26:40;1.30;;;1.20;;
29030;SDS011;16122;50.236;11.734;2022-12-29T10:31:50;1.17;;;1.03;;
29030;SDS011;16122;50.236;11.734;2022-12-29T10:34:26;0.90;;;0.80;;
29030;SDS011;16122;50.236;11.734;2022-12-29T10:37:18;2.20;;;1.20;;
29030;SDS011;16122;50.236;11.734;2022-12-29T10:39:53;2.50;;;1.03;;
29030;SDS011;16122;50.236;11.734;2022-12-29T10:44:49;1.33;;;1.23;;
29030;SDS011;16122;50.236;11.734;2022-12-29T10:47:16;1.27;;;1.00;;
29030;SDS011;16122;50.236;11.734;2022-12-29T10:49:47;1.40;;;1.30;;
29030;SDS011;16122;50.236;11.734;2022-12-29T10:52:13;1.40;;;1.00;;
29030;SDS011;16122;50.236;11.734;2022-12-29T10:54:44;1.77;;;1.30;;
29030;SDS011;16122;50.236;11.734;2022-12-29T10:57:19;2.20;;;1.03;;
29030;SDS011;16122;50.236;11.734;2022-12-29T10:59:50;1.53;;;0.97;;
29030;SDS011;16122;50.236;11.734;2022-12-29T11:04:58;2.87;;;1.10;;
29030;SDS011;16122;50.236;11.734;2022-12-29T11:07:35;3.23;;;1.60;;
29030;SDS011;16122;50.236;11.734;2022-12-29T11:10:44;11.10;;;5.80;;
29030;SDS011;16122;50.236;11.734;2022-12-29T11:12:54;53.87;;;29.33;;
29030;SDS011;16122;50.236;11.734;2022-12-29T11:15:40;431.57;;;218.03;;
29030;SDS011;16122;50.236;11.734;2022-12-29T11:18:21;528.30;;;322.87;;
29030;SDS011;16122;50.236;11.734;2022-12-29T11:20:55;684.33;;;471.63;;
29030;SDS011;16122;50.236;11.734;2022-12-29T11:23:46;855.73;;;580.97;;
29030;SDS011;16122;50.236;11.734;2022-12-29T11:26:20;796.27;;;542.23;;
29030;SDS011;16122;50.236;11.734;2022-12-29T11:28:48;768.20;;;511.07;;
29030;SDS011;16122;50.236;11.734;2022-12-29T11:31:40;699.50;;;476.67;;
29030;SDS011;16122;50.236;11.734;2022-12-29T11:34:07;677.60;;;449.00;;
29030;SDS011;16122;50.236;11.734;2022-12-29T11:36:33;648.87;;;430.47;;
29030;SDS011;16122;50.236;11.734;2022-12-29T11:39:01;654.40;;;429.23;;
29030;SDS011;16122;50.236;11.734;2022-12-29T11:41:28;602.63;;;394.37;;
29030;SDS011;16122;50.236;11.734;2022-12-29T11:43:57;607.23;;;386.57;;
29030;SDS011;16122;50.236;11.734;2022-12-29T11:46:28;579.17;;;379.10;;
29030;SDS011;16122;50.236;11.734;2022-12-29T11:48:56;580.40;;;378.87;;
29030;SDS011;16122;50.236;11.734;2022-12-29T11:51:43;567.73;;;353.60;;
29030;SDS011;16122;50.236;11.734;2022-12-29T11:56:58;554.87;;;339.80;;
29030;SDS011;16122;50.236;11.734;2022-12-29T11:59:38;547.47;;;335.10;;
29030;SDS011;16122;50.236;11.734;2022-12-29T12:05:22;548.23;;;335.97;;
29030;SDS011;16122;50.236;11.734;2022-12-29T12:08:07;523.67;;;315.20;;
29030;SDS011;16122;50.236;11.734;2022-12-29T12:11:10;514.23;;;307.17;;
29030;SDS011;16122;50.236;11.734;2022-12-29T12:21:41;490.50;;;280.70;;
29030;SDS011;16122;50.236;11.734;2022-12-29T12:24:34;464.30;;;267.53;;
29030;SDS011;16122;50.236;11.734;2022-12-29T12:27:19;462.33;;;264.43;;
29030;SDS011;16122;50.236;11.734;2022-12-29T12:30:14;462.00;;;267.27;;
29030;SDS011;16122;50.236;11.734;2022-12-29T12:35:26;435.40;;;246.07;;
29030;SDS011;16122;50.236;11.734;2022-12-29T12:41:05;430.50;;;232.40;;
29030;SDS011;16122;50.236;11.734;2022-12-29T12:55:34;398.20;;;201.07;;
29030;SDS011;16122;50.236;11.734;2022-12-29T13:03:47;332.30;;;170.20;;
29030;SDS011;16122;50.236;11.734;2022-12-29T13:23:13;291.40;;;153.07;;
29030;SDS011;16122;50.236;11.734;2022-12-29T13:26:05;278.20;;;146.67;;
29030;SDS011;16122;50.236;11.734;2022-12-29T13:37:04;247.77;;;132.10;;
29030;SDS011;16122;50.236;11.734;2022-12-29T13:39:43;249.23;;;128.93;;
29030;SDS011;16122;50.236;11.734;2022-12-29T13:42:14;245.87;;;132.00;;
29030;SDS011;16122;50.236;11.734;2022-12-29T13:44:44;235.30;;;127.97;;
29030;SDS011;16122;50.236;11.734;2022-12-29T13:50:03;244.60;;;123.03;;
29030;SDS011;16122;50.236;11.734;2022-12-29T13:52:36;216.60;;;119.00;;
29030;SDS011;16122;50.236;11.734;2022-12-29T14:03:44;206.73;;;104.30;;
29030;SDS011;16122;50.236;11.734;2022-12-29T14:06:18;185.73;;;103.70;;
29030;SDS011;16122;50.236;11.734;2022-12-29T14:08:50;191.40;;;99.80;;
29030;SDS011;16122;50.236;11.734;2022-12-29T14:11:23;182.60;;;94.20;;
29030;SDS011;16122;50.236;11.734;2022-12-29T14:13:55;169.47;;;92.47;;
29030;SDS011;16122;50.236;11.734;2022-12-29T14:16:32;171.50;;;88.70;;
29030;SDS011;16122;50.236;11.734;2022-12-29T14:19:09;171.40;;;91.43;;
29030;SDS011;16122;50.236;11.734;2022-12-29T14:21:39;174.30;;;88.38;;
29030;SDS011;16122;50.236;11.734;2022-12-29T14:26:53;177.63;;;92.60;;
29030;SDS011;16122;50.236;11.734;2022-12-29T14:31:53;157.77;;;83.00;;
29030;SDS011;16122;50.236;11.734;2022-12-29T14:36:52;152.97;;;83.67;;
29030;SDS011;16122;50.236;11.734;2022-12-29T14:39:39;163.70;;;84.57;;
29030;SDS011;16122;50.236;11.734;2022-12-29T14:47:25;138.23;;;74.93;;
29030;SDS011;16122;50.236;11.734;2022-12-29T14:53:06;137.90;;;70.03;;
29030;SDS011;16122;50.236;11.734;2022-12-29T14:55:55;133.97;;;71.13;;
29030;SDS011;16122;50.236;11.734;2022-12-29T14:58:27;117.10;;;64.50;;
29030;SDS011;16122;50.236;11.734;2022-12-29T15:00:57;118.50;;;66.33;;
29030;SDS011;16122;50.236;11.734;2022-12-29T15:03:25;124.73;;;66.10;;
29030;SDS011;16122;50.236;11.734;2022-12-29T15:05:55;129.20;;;66.43;;
29030;SDS011;16122;50.236;11.734;2022-12-29T15:08:24;127.90;;;65.40;;
29030;SDS011;16122;50.236;11.734;2022-12-29T15:10:56;122.07;;;64.47;;
29030;SDS011;16122;50.236;11.734;2022-12-29T15:13:34;124.50;;;60.70;;
29030;SDS011;16122;50.236;11.734;2022-12-29T15:16:02;116.13;;;61.60;;
29030;SDS011;16122;50.236;11.734;2022-12-29T15:18:29;115.03;;;61.17;;
29030;SDS011;16122;50.236;11.734;2022-12-29T15:21:03;100.13;;;57.73;;
29030;SDS011;16122;50.236;11.734;2022-12-29T15:23:31;103.27;;;57.40;;
29030;SDS011;16122;50.236;11.734;2022-12-29T15:25:59;102.40;;;57.57;;
29030;SDS011;16122;50.236;11.734;2022-12-29T15:28:43;98.10;;;56.00;;
29030;SDS011;16122;50.236;11.734;2022-12-29T15:31:17;107.27;;;55.80;;
29030;SDS011;16122;50.236;11.734;2022-12-29T15:33:47;92.50;;;53.67;;
29030;SDS011;16122;50.236;11.734;2022-12-29T15:36:17;101.93;;;52.90;;
29030;SDS011;16122;50.236;11.734;2022-12-29T15:38:47;94.37;;;53.60;;
29030;SDS011;16122;50.236;11.734;2022-12-29T15:46:36;94.00;;;50.97;;
29030;SDS011;16122;50.236;11.734;2022-12-29T15:49:05;98.37;;;52.83;;
29030;SDS011;16122;50.236;11.734;2022-12-29T15:51:38;88.80;;;49.60;;
29030;SDS011;16122;50.236;11.734;2022-12-29T15:54:05;89.00;;;50.03;;
29030;SDS011;16122;50.236;11.734;2022-12-29T15:56:39;82.10;;;46.00;;
29030;SDS011;16122;50.236;11.734;2022-12-29T15:59:20;80.93;;;46.00;;
29030;SDS011;16122;50.236;11.734;2022-12-29T16:01:51;85.47;;;47.50;;
29030;SDS011;16122;50.236;11.734;2022-12-29T16:04:18;88.80;;;48.30;;
29030;SDS011;16122;50.236;11.734;2022-12-29T16:06:45;81.70;;;46.30;;
29030;SDS011;16122;50.236;11.734;2022-12-29T16:12:21;78.73;;;45.20;;
29030;SDS011;16122;50.236;11.734;2022-12-29T16:14:48;78.10;;;44.20;;
29030;SDS011;16122;50.236;11.734;2022-12-29T16:17:20;80.80;;;43.93;;
29030;SDS011;16122;50.236;11.734;2022-12-29T16:19:53;75.10;;;43.03;;
29030;SDS011;16122;50.236;11.734;2022-12-29T16:22:35;75.63;;;42.40;;
29030;SDS011;16122;50.236;11.734;2022-12-29T16:25:27;68.30;;;41.30;;
29030;SDS011;16122;50.236;11.734;2022-12-29T16:27:57;64.17;;;39.10;;
29030;SDS011;16122;50.236;11.734;2022-12-29T16:30:31;71.13;;;39.57;;
29030;SDS011;16122;50.236;11.734;2022-12-29T16:33:03;73.33;;;39.97;;
29030;SDS011;16122;50.236;11.734;2022-12-29T16:38:15;62.60;;;38.47;;
29030;SDS011;16122;50.236;11.734;2022-12-29T16:48:19;61.13;;;34.87;;
29030;SDS011;16122;50.236;11.734;2022-12-29T16:51:00;61.93;;;35.27;;
29030;SDS011;16122;50.236;11.734;2022-12-29T16:53:34;56.17;;;33.70;;
29030;SDS011;16122;50.236;11.734;2022-12-29T16:56:12;57.50;;;33.47;;
29030;SDS011;16122;50.236;11.734;2022-12-29T16:58:40;53.23;;;32.67;;
29030;SDS011;16122;50.236;11.734;2022-12-29T17:01:10;59.83;;;33.00;;
29030;SDS011;16122;50.236;11.734;2022-12-29T17:03:40;59.10;;;33.47;;
29030;SDS011;16122;50.236;11.734;2022-12-29T17:06:14;51.30;;;33.03;;
29030;SDS011;16122;50.236;11.734;2022-12-29T17:08:41;52.33;;;30.63;;
29030;SDS011;16122;50.236;11.734;2022-12-29T17:11:22;49.13;;;30.30;;
29030;SDS011;16122;50.236;11.734;2022-12-29T17:17:05;48.50;;;30.33;;
29030;SDS011;16122;50.236;11.734;2022-12-29T17:19:37;51.13;;;30.27;;
29030;SDS011;16122;50.236;11.734;2022-12-29T17:22:12;50.47;;;28.03;;
29030;SDS011;16122;50.236;11.734;2022-12-29T17:24:50;39.90;;;26.70;;
29030;SDS011;16122;50.236;11.734;2022-12-29T17:29:51;48.30;;;29.27;;
29030;SDS011;16122;50.236;11.734;2022-12-29T17:32:19;47.43;;;28.93;;
29030;SDS011;16122;50.236;11.734;2022-12-29T17:34:45;51.90;;;28.90;;
29030;SDS011;16122;50.236;11.734;2022-12-29T17:37:20;42.80;;;26.53;;
29030;SDS011;16122;50.236;11.734;2022-12-29T17:39:49;40.97;;;25.73;;
29030;SDS011;16122;50.236;11.734;2022-12-29T17:42:15;42.77;;;25.97;;
29030;SDS011;16122;50.236;11.734;2022-12-29T17:44:42;35.80;;;25.20;;
29030;SDS011;16122;50.236;11.734;2022-12-29T17:47:09;37.70;;;24.70;;